createdAt,value
2023-04-27T00:00:09.946Z,92.00
2023-04-27T00:00:43.733Z,92.00
2023-04-27T00:01:17.218Z,92.10
2023-04-27T00:01:52.442Z,92.10
2023-04-27T00:02:27.545Z,92.10
2023-04-27T00:03:06.147Z,92.10
2023-04-27T00:03:40.830Z,92.10
2023-04-27T00:04:15.739Z,92.10
2023-04-27T00:04:49.045Z,92.10
2023-04-27T00:05:24.077Z,92.10
2023-04-27T00:05:59.071Z,92.10
2023-04-27T00:06:33.620Z,92.10
2023-04-27T00:07:08.586Z,92.10
2023-04-27T00:07:42.484Z,92.10
2023-04-27T00:08:18.705Z,92.10
2023-04-27T00:08:52.499Z,92.10
2023-04-27T00:09:26.979Z,92.10
2023-04-27T00:10:01.703Z,92.10
2023-04-27T00:10:36.306Z,92.10
2023-04-27T00:11:11.450Z,92.10
2023-04-27T00:11:45.188Z,92.20
2023-04-27T00:12:19.490Z,92.20
2023-04-27T00:12:54.452Z,92.30
2023-04-27T00:13:29.996Z,92.40
2023-04-27T00:14:03.705Z,92.40
2023-04-27T00:14:38.906Z,92.40
2023-04-27T00:15:13.489Z,92.40
2023-04-27T00:15:47.765Z,92.40
2023-04-27T00:16:22.901Z,92.40
2023-04-27T00:16:56.456Z,92.40
2023-04-27T00:17:30.173Z,92.40
2023-04-27T00:18:06.301Z,92.40
2023-04-27T00:18:39.913Z,92.40
2023-04-27T00:19:15.111Z,92.30
2023-04-27T00:19:49.590Z,92.40
2023-04-27T00:20:24.355Z,92.40
2023-04-27T00:20:59.249Z,92.40
2023-04-27T00:21:34.574Z,92.40
2023-04-27T00:22:08.423Z,92.50
2023-04-27T00:22:43.554Z,92.40
2023-04-27T00:23:17.147Z,92.50
2023-04-27T00:23:50.093Z,92.40
2023-04-27T00:24:25.461Z,92.50
2023-04-27T00:24:59.533Z,92.50
2023-04-27T00:25:34.119Z,92.50
2023-04-27T00:26:08.030Z,92.50
2023-04-27T00:26:43.465Z,92.50
2023-04-27T00:27:18.048Z,92.50
2023-04-27T00:27:52.972Z,92.60
2023-04-27T00:28:26.872Z,92.60
2023-04-27T00:29:00.659Z,92.60
2023-04-27T00:29:34.144Z,92.50
2023-04-27T00:30:11.016Z,92.50
2023-04-27T00:30:46.510Z,92.60
2023-04-27T00:31:21.451Z,92.60
2023-04-27T00:31:56.685Z,92.60
2023-04-27T00:32:30.530Z,92.60
2023-04-27T00:33:06.627Z,92.60
2023-04-27T00:33:41.036Z,92.60
2023-04-27T00:34:15.707Z,92.50
2023-04-27T00:34:50.222Z,92.50
2023-04-27T00:35:23.611Z,92.50
2023-04-27T00:36:01.858Z,92.50
2023-04-27T00:36:34.813Z,92.50
2023-04-27T00:37:08.362Z,92.50
2023-04-27T00:37:43.444Z,92.50
2023-04-27T00:38:19.529Z,92.50
2023-04-27T00:38:53.930Z,92.50
2023-04-27T00:39:28.356Z,92.50
2023-04-27T00:40:06.133Z,92.50
2023-04-27T00:40:39.028Z,92.50
2023-04-27T00:41:13.503Z,92.50
2023-04-27T00:41:49.821Z,92.50
2023-04-27T00:42:25.777Z,92.70
2023-04-27T00:43:00.451Z,92.40
2023-04-27T00:43:34.436Z,92.40
2023-04-27T00:44:08.210Z,92.40
2023-04-27T00:44:41.941Z,92.40
2023-04-27T00:45:15.981Z,92.40
2023-04-27T00:45:52.835Z,92.40
2023-04-27T00:46:26.461Z,92.40
2023-04-27T00:47:00.414Z,92.40
2023-04-27T00:47:35.053Z,92.40
2023-04-27T00:48:11.183Z,92.40
2023-04-27T00:48:45.290Z,92.40
2023-04-27T00:49:19.397Z,92.40
2023-04-27T00:49:54.714Z,92.40
2023-04-27T00:50:32.822Z,92.40
2023-04-27T00:51:06.910Z,92.50
2023-04-27T00:51:42.088Z,92.50
2023-04-27T00:52:17.894Z,92.50
2023-04-27T00:52:52.209Z,92.50
2023-04-27T00:53:28.280Z,92.50
2023-04-27T00:54:02.950Z,92.50
2023-04-27T00:54:36.449Z,92.50
2023-04-27T00:55:11.251Z,92.50
2023-04-27T00:55:48.321Z,92.50
2023-04-27T00:56:22.057Z,92.50
2023-04-27T00:56:55.338Z,92.50
2023-04-27T00:57:30.737Z,92.50
2023-04-27T00:58:04.560Z,92.50
2023-04-27T00:58:39.198Z,92.40
2023-04-27T00:59:13.880Z,92.40
2023-04-27T00:59:47.862Z,92.40
2023-04-27T01:00:24.153Z,92.40
2023-04-27T01:00:58.665Z,92.30
2023-04-27T01:01:33.184Z,92.40
2023-04-27T01:02:08.608Z,92.40
2023-04-27T01:02:43.699Z,92.40
2023-04-27T01:03:18.670Z,92.40
2023-04-27T01:03:54.175Z,92.30
2023-04-27T01:04:32.489Z,92.30
2023-04-27T01:05:07.478Z,92.30
2023-04-27T01:05:41.727Z,92.30
2023-04-27T01:06:16.758Z,92.30
2023-04-27T01:06:50.735Z,92.30
2023-04-27T01:07:27.819Z,92.30
2023-04-27T01:08:01.151Z,92.30
2023-04-27T01:08:36.437Z,92.30
2023-04-27T01:09:11.896Z,92.40
2023-04-27T01:09:45.691Z,92.40
2023-04-27T01:10:19.325Z,92.40
2023-04-27T01:10:53.744Z,92.40
2023-04-27T01:11:27.686Z,92.40
2023-04-27T01:12:01.560Z,92.50
2023-04-27T01:12:36.595Z,92.50
2023-04-27T01:13:11.488Z,92.50
2023-04-27T01:13:45.910Z,92.50
2023-04-27T01:14:20.389Z,92.50
2023-04-27T01:14:54.392Z,92.50
2023-04-27T01:15:29.118Z,92.50
2023-04-27T01:16:03.386Z,92.60
2023-04-27T01:16:39.534Z,92.60
2023-04-27T01:17:13.225Z,92.60
2023-04-27T01:17:49.545Z,92.60
2023-04-27T01:18:25.938Z,92.60
2023-04-27T01:18:59.628Z,92.60
2023-04-27T01:19:35.444Z,92.60
2023-04-27T01:20:11.273Z,92.60
2023-04-27T01:20:45.775Z,92.60
2023-04-27T01:21:20.458Z,92.60
2023-04-27T01:21:54.527Z,92.60
2023-04-27T01:22:31.632Z,92.60
2023-04-27T01:23:06.572Z,92.60
2023-04-27T01:23:41.978Z,92.60
2023-04-27T01:24:17.039Z,92.70
2023-04-27T01:24:51.610Z,92.60
2023-04-27T01:25:26.026Z,92.60
2023-04-27T01:25:58.754Z,92.60
2023-04-27T01:26:33.458Z,92.60
2023-04-27T01:27:07.003Z,92.60
2023-04-27T01:27:42.242Z,92.70
2023-04-27T01:28:19.872Z,92.70
2023-04-27T01:28:56.011Z,92.70
2023-04-27T01:29:28.979Z,92.80
2023-04-27T01:30:04.363Z,92.80
2023-04-27T01:30:37.813Z,92.80
2023-04-27T01:31:11.668Z,92.80
2023-04-27T01:31:46.691Z,92.80
2023-04-27T01:32:21.976Z,92.80
2023-04-27T01:32:58.438Z,92.80
2023-04-27T01:33:34.579Z,92.80
2023-04-27T01:34:08.578Z,92.70
2023-04-27T01:34:42.483Z,92.70
2023-04-27T01:35:17.074Z,92.70
2023-04-27T01:35:51.646Z,92.80
2023-04-27T01:36:25.168Z,92.80
2023-04-27T01:37:04.238Z,92.80
2023-04-27T01:37:37.901Z,92.80
2023-04-27T01:38:11.980Z,92.80
2023-04-27T01:38:46.295Z,92.80
2023-04-27T01:39:19.715Z,92.70
2023-04-27T01:39:55.152Z,92.70
2023-04-27T01:40:30.283Z,92.70
2023-04-27T01:41:05.511Z,92.70
2023-04-27T01:41:40.734Z,92.70
2023-04-27T01:42:14.700Z,92.80
2023-04-27T01:42:48.427Z,92.80
2023-04-27T01:43:22.960Z,92.80
2023-04-27T01:43:56.917Z,92.80
2023-04-27T01:44:31.463Z,92.80
2023-04-27T01:45:08.964Z,92.80
2023-04-27T01:45:42.882Z,92.80
2023-04-27T01:46:17.271Z,92.90
2023-04-27T01:46:52.349Z,92.80
2023-04-27T01:47:26.696Z,92.90
2023-04-27T01:48:00.525Z,92.90
2023-04-27T01:48:36.085Z,92.90
2023-04-27T01:49:09.709Z,92.90
2023-04-27T01:49:43.136Z,92.90
2023-04-27T01:50:18.233Z,92.90
2023-04-27T01:50:53.777Z,92.90
2023-04-27T01:51:28.311Z,92.90
2023-04-27T01:52:02.206Z,92.90
2023-04-27T01:52:36.284Z,92.90
2023-04-27T01:53:09.422Z,92.90
2023-04-27T01:53:45.679Z,92.90
2023-04-27T01:54:21.943Z,93.00
2023-04-27T01:54:57.023Z,93.00
2023-04-27T01:55:30.357Z,93.00
2023-04-27T01:56:04.900Z,93.00
2023-04-27T01:56:41.355Z,93.00
2023-04-27T01:57:15.192Z,93.00
2023-04-27T01:57:49.251Z,93.10
2023-04-27T01:58:25.259Z,92.80
2023-04-27T01:59:00.081Z,93.00
2023-04-27T01:59:34.270Z,93.10
2023-04-27T02:00:12.260Z,93.00
2023-04-27T02:00:55.241Z,93.10
2023-04-27T02:01:29.996Z,93.10
2023-04-27T02:02:04.612Z,93.10
2023-04-27T02:02:37.929Z,93.10
2023-04-27T02:03:14.236Z,93.10
2023-04-27T02:03:49.712Z,93.10
2023-04-27T02:04:25.146Z,93.00
2023-04-27T02:04:59.425Z,93.00
2023-04-27T02:05:33.476Z,93.00
2023-04-27T02:06:08.024Z,93.00
2023-04-27T02:06:45.755Z,93.00
2023-04-27T02:07:21.084Z,93.00
2023-04-27T02:07:54.477Z,93.00
2023-04-27T02:08:30.070Z,93.00
2023-04-27T02:09:05.531Z,93.10
2023-04-27T02:09:40.904Z,93.10
2023-04-27T02:10:16.065Z,93.10
2023-04-27T02:10:50.523Z,93.10
2023-04-27T02:11:24.680Z,93.10
2023-04-27T02:11:59.109Z,93.20
2023-04-27T02:12:34.058Z,93.20
2023-04-27T02:13:07.653Z,93.20
2023-04-27T02:13:41.680Z,93.20
2023-04-27T02:14:18.325Z,93.20
2023-04-27T02:15:13.018Z,93.30
2023-04-27T02:15:47.764Z,93.20
2023-04-27T02:16:21.839Z,93.20
2023-04-27T02:16:55.177Z,93.20
2023-04-27T02:17:29.917Z,93.20
2023-04-27T02:18:04.758Z,93.20
2023-04-27T02:18:39.242Z,93.20
2023-04-27T02:19:14.019Z,93.10
2023-04-27T02:19:48.027Z,93.40
2023-04-27T02:20:21.705Z,93.10
2023-04-27T02:20:56.110Z,93.20
2023-04-27T02:21:30.147Z,93.20
2023-04-27T02:22:04.824Z,93.20
2023-04-27T02:22:42.129Z,93.20
2023-04-27T02:23:15.541Z,93.30
2023-04-27T02:23:50.130Z,93.40
2023-04-27T02:24:26.222Z,93.40
2023-04-27T02:25:01.433Z,93.40
2023-04-27T02:25:37.372Z,93.40
2023-04-27T02:26:20.084Z,93.40
2023-04-27T02:26:54.632Z,93.40
2023-04-27T02:27:29.199Z,93.50
2023-04-27T02:28:06.510Z,93.50
2023-04-27T02:28:41.485Z,93.50
2023-04-27T02:29:17.634Z,93.50
2023-04-27T02:29:52.120Z,93.50
2023-04-27T02:30:26.651Z,93.50
2023-04-27T02:31:04.013Z,93.50
2023-04-27T02:31:37.811Z,93.60
2023-04-27T02:32:11.747Z,93.60
2023-04-27T02:32:46.521Z,93.60
2023-04-27T02:33:21.980Z,93.70
2023-04-27T02:33:57.689Z,93.70
2023-04-27T02:34:34.524Z,93.80
2023-04-27T02:35:10.031Z,93.80
2023-04-27T02:35:44.404Z,93.80
2023-04-27T02:36:19.350Z,93.80
2023-04-27T02:36:54.197Z,94.10
2023-04-27T02:37:28.437Z,93.80
2023-04-27T02:38:05.081Z,93.90
2023-04-27T02:38:38.271Z,93.90
2023-04-27T02:39:13.477Z,93.90
2023-04-27T02:39:48.762Z,93.90
2023-04-27T02:40:24.393Z,93.90
2023-04-27T02:40:57.751Z,93.90
2023-04-27T02:41:34.516Z,93.90
2023-04-27T02:42:08.582Z,93.90
2023-04-27T02:42:43.484Z,93.90
2023-04-27T02:43:18.583Z,94.00
2023-04-27T02:43:52.345Z,94.00
2023-04-27T02:44:25.808Z,94.00
2023-04-27T02:45:00.369Z,94.00
2023-04-27T02:45:38.462Z,94.00
2023-04-27T02:46:13.216Z,94.00
2023-04-27T02:46:48.578Z,93.90
2023-04-27T02:47:21.462Z,93.90
2023-04-27T02:47:55.405Z,93.90
2023-04-27T02:48:30.621Z,93.90
2023-04-27T02:49:05.011Z,94.00
2023-04-27T02:49:38.542Z,93.90
2023-04-27T02:50:14.359Z,93.90
2023-04-27T02:50:47.827Z,93.80
2023-04-27T02:51:21.775Z,93.80
2023-04-27T02:51:55.796Z,93.80
2023-04-27T02:52:29.383Z,93.80
2023-04-27T02:53:04.025Z,93.80
2023-04-27T02:53:39.135Z,93.80
2023-04-27T02:54:12.376Z,93.80
2023-04-27T02:54:47.374Z,93.80
2023-04-27T02:55:24.038Z,93.80
2023-04-27T02:55:59.053Z,93.80
2023-04-27T02:56:32.133Z,93.80
2023-04-27T02:57:07.707Z,93.80
2023-04-27T02:57:41.868Z,93.80
2023-04-27T02:58:15.482Z,93.80
2023-04-27T02:58:51.595Z,93.80
2023-04-27T02:59:25.399Z,93.80
2023-04-27T02:59:58.370Z,93.80
2023-04-27T03:00:32.878Z,93.80
2023-04-27T03:01:07.252Z,93.80
2023-04-27T03:01:40.003Z,93.80
2023-04-27T03:02:14.276Z,94.00
2023-04-27T03:02:48.413Z,93.80
2023-04-27T03:03:23.593Z,93.80
2023-04-27T03:03:59.347Z,93.80
2023-04-27T03:04:33.343Z,93.70
2023-04-27T03:05:09.112Z,93.70
2023-04-27T03:05:43.962Z,93.80
2023-04-27T03:06:17.692Z,93.80
2023-04-27T03:06:51.652Z,93.80
2023-04-27T03:07:27.019Z,93.80
2023-04-27T03:08:00.868Z,93.80
2023-04-27T03:08:34.252Z,93.70
2023-04-27T03:09:10.941Z,93.70
2023-04-27T03:09:44.991Z,93.70
2023-04-27T03:10:19.005Z,93.70
2023-04-27T03:10:55.256Z,93.60
2023-04-27T03:11:28.637Z,93.60
2023-04-27T03:12:06.373Z,93.60
2023-04-27T03:12:41.496Z,93.60
2023-04-27T03:13:15.050Z,93.50
2023-04-27T03:13:52.388Z,93.50
2023-04-27T03:14:26.335Z,93.30
2023-04-27T03:15:01.661Z,93.20
2023-04-27T03:15:36.635Z,93.10
2023-04-27T03:16:46.456Z,92.60
2023-04-27T03:17:20.903Z,92.60
2023-04-27T03:17:55.287Z,92.50
2023-04-27T03:18:28.844Z,92.40
2023-04-27T03:19:04.521Z,92.20
2023-04-27T03:19:37.846Z,92.10
2023-04-27T03:20:12.944Z,92.00
2023-04-27T03:20:48.171Z,91.90
2023-04-27T03:21:23.155Z,91.80
2023-04-27T03:21:56.509Z,91.70
2023-04-27T03:22:31.734Z,91.60
2023-04-27T03:23:05.879Z,91.50
2023-04-27T03:23:38.465Z,91.40
2023-04-27T03:24:14.056Z,91.40
2023-04-27T03:24:50.397Z,91.40
2023-04-27T03:25:26.326Z,91.30
2023-04-27T03:26:01.308Z,91.30
2023-04-27T03:26:34.517Z,91.20
2023-04-27T03:27:09.326Z,91.10
2023-04-27T03:27:43.771Z,91.10
2023-04-27T03:28:19.007Z,91.00
2023-04-27T03:28:54.048Z,91.00
2023-04-27T03:29:28.162Z,91.00
2023-04-27T03:30:02.549Z,90.90
2023-04-27T03:30:35.229Z,90.90
2023-04-27T03:31:11.113Z,90.90
2023-04-27T03:31:44.705Z,90.90
2023-04-27T03:32:19.466Z,90.90
2023-04-27T03:32:55.303Z,90.90
2023-04-27T03:33:30.537Z,90.80
2023-04-27T03:34:04.785Z,90.80
2023-04-27T03:34:40.100Z,90.90
2023-04-27T03:35:13.911Z,90.80
2023-04-27T03:35:55.499Z,90.90
2023-04-27T03:36:29.846Z,90.80
2023-04-27T03:37:03.261Z,90.80
2023-04-27T03:37:37.716Z,90.80
2023-04-27T03:38:11.857Z,90.80
2023-04-27T03:38:45.649Z,90.70
2023-04-27T03:39:19.996Z,90.70
2023-04-27T03:39:55.174Z,90.60
2023-04-27T03:40:29.411Z,90.60
2023-04-27T03:41:04.466Z,90.60
2023-04-27T03:41:38.514Z,90.50
2023-04-27T03:42:12.392Z,90.50
2023-04-27T03:42:47.154Z,90.50
2023-04-27T03:43:23.308Z,90.50
2023-04-27T03:43:58.100Z,90.40
2023-04-27T03:44:34.933Z,90.40
2023-04-27T03:45:12.914Z,90.30
2023-04-27T03:45:46.890Z,90.20
2023-04-27T03:46:19.959Z,90.20
2023-04-27T03:46:54.951Z,90.10
2023-04-27T03:47:29.318Z,90.00
2023-04-27T03:48:05.088Z,90.00
2023-04-27T03:48:40.833Z,90.00
2023-04-27T03:49:16.112Z,89.80
2023-04-27T03:49:51.140Z,89.70
2023-04-27T03:50:28.900Z,90.10
2023-04-27T03:51:03.008Z,89.60
2023-04-27T03:51:38.543Z,89.60
2023-04-27T03:52:13.048Z,89.50
2023-04-27T03:52:47.170Z,89.40
2023-04-27T03:53:21.748Z,89.30
2023-04-27T03:53:58.491Z,89.20
2023-04-27T03:54:32.755Z,89.00
2023-04-27T03:55:08.386Z,88.40
2023-04-27T03:55:43.066Z,88.70
2023-04-27T03:56:19.665Z,88.70
2023-04-27T03:56:55.002Z,88.70
2023-04-27T03:58:39.697Z,88.80
2023-04-27T03:59:33.388Z,89.60
2023-04-27T04:00:13.014Z,88.90
2023-04-27T04:00:48.330Z,88.90
2023-04-27T04:01:23.913Z,88.70
2023-04-27T04:01:59.556Z,88.50
2023-04-27T04:47:44.142Z,88.30
2023-04-27T04:48:54.901Z,62.40
2023-04-27T04:53:33.677Z,62.30
2023-04-27T04:54:08.762Z,56.80
2023-04-27T05:45:02.728Z,57.70
2023-04-27T05:45:40.965Z,51.70
2023-04-27T05:46:15.054Z,51.70
2023-04-27T05:46:50.319Z,51.80
2023-04-27T05:47:24.409Z,51.80
2023-04-27T05:48:02.318Z,51.80
2023-04-27T05:48:36.415Z,52.00
2023-04-27T05:49:11.510Z,51.50
2023-04-27T05:49:54.694Z,51.10
2023-04-27T05:50:29.674Z,51.10
2023-04-27T05:51:05.189Z,51.90
2023-04-27T05:51:41.452Z,52.00
2023-04-27T05:52:18.839Z,52.20
2023-04-27T05:52:54.581Z,52.30
2023-04-27T05:53:31.022Z,51.90
2023-04-27T05:54:05.325Z,51.90
2023-04-27T05:54:39.961Z,51.60
2023-04-27T05:55:14.576Z,51.60
2023-04-27T05:55:50.776Z,51.20
2023-04-27T05:56:26.272Z,50.60
2023-04-27T05:57:00.168Z,50.50
2023-04-27T05:57:35.635Z,50.50
2023-04-27T05:58:12.110Z,50.70
2023-04-27T05:58:47.822Z,50.10
2023-04-27T06:21:02.431Z,49.80
2023-04-27T06:21:36.393Z,42.20
2023-04-27T06:22:12.866Z,41.90
2023-04-27T06:22:47.482Z,41.50
2023-04-27T06:23:23.042Z,40.70
2023-04-27T06:25:09.323Z,38.80
2023-04-27T06:25:45.628Z,39.40
2023-04-27T06:26:21.231Z,38.70
2023-04-27T06:26:55.520Z,38.70
2023-04-27T06:27:31.145Z,38.60
2023-04-27T06:28:05.790Z,38.00
2023-04-27T06:28:42.788Z,37.40
2023-04-27T06:29:16.726Z,37.70
2023-04-27T06:29:54.222Z,37.60
2023-04-27T06:30:30.008Z,37.40
2023-04-27T06:31:07.021Z,37.10
2023-04-27T06:31:41.700Z,37.30
2023-04-27T06:32:16.618Z,37.50
2023-04-27T06:32:54.770Z,37.60
2023-04-27T06:33:28.193Z,37.60
2023-04-27T06:34:03.041Z,37.90
2023-04-27T06:34:37.809Z,37.70
2023-04-27T06:35:13.743Z,37.50
2023-04-27T06:35:48.427Z,36.60
2023-04-27T06:36:22.965Z,36.90
2023-04-27T06:36:58.036Z,36.30
2023-04-27T06:37:33.615Z,36.30
2023-04-27T06:38:08.329Z,36.30
2023-04-27T06:38:43.846Z,36.80
2023-04-27T06:39:18.000Z,37.20
2023-04-27T06:39:52.073Z,37.50
2023-04-27T06:40:28.151Z,37.50
2023-04-27T06:41:06.818Z,37.70
2023-04-27T06:42:05.863Z,37.80
2023-04-27T06:42:41.183Z,37.30
2023-04-27T06:43:16.020Z,37.30
2023-04-27T06:43:52.839Z,36.90
2023-04-27T06:44:26.306Z,37.20
2023-04-27T06:45:01.146Z,37.00
2023-04-27T06:45:35.138Z,37.00
2023-04-27T06:46:09.593Z,36.70
2023-04-27T06:46:43.564Z,36.50
2023-04-27T06:47:52.711Z,36.30
2023-04-27T06:48:28.883Z,36.70
2023-04-27T06:49:03.874Z,35.60
2023-04-27T06:49:38.232Z,33.90
2023-04-27T10:07:00.575Z,34.50
2023-04-27T10:07:37.234Z,34.90
2023-04-27T10:08:11.711Z,34.90
2023-04-27T10:08:46.150Z,35.10
2023-04-27T10:09:24.423Z,35.10
2023-04-27T10:10:03.144Z,35.10
2023-04-27T10:10:50.410Z,35.40
2023-04-27T10:11:39.905Z,35.50
2023-04-27T10:12:58.718Z,35.10
2023-04-27T10:13:33.859Z,35.60
2023-04-27T10:14:09.088Z,35.80
2023-04-27T10:14:51.400Z,36.00
2023-04-27T10:15:30.467Z,36.20
2023-04-27T10:16:18.149Z,36.40
2023-04-27T10:16:53.438Z,36.40
2023-04-27T10:17:35.898Z,36.40
2023-04-27T10:18:11.558Z,36.40
2023-04-27T10:20:41.574Z,36.70
2023-04-27T10:21:17.217Z,37.30
2023-04-27T10:22:00.567Z,37.10
2023-04-27T10:22:41.837Z,37.30
2023-04-27T10:23:26.836Z,37.50
2023-04-27T10:24:08.672Z,37.60
2023-04-27T10:24:45.095Z,37.60
2023-04-27T10:25:20.017Z,37.80
2023-04-27T10:25:55.681Z,38.00
2023-04-27T10:26:29.449Z,38.00
2023-04-27T10:27:05.920Z,38.00
2023-04-27T10:27:41.865Z,38.10
2023-04-27T10:28:17.578Z,38.30
2023-04-27T12:28:39.776Z,40.00
2023-04-27T12:29:13.728Z,45.60
2023-04-27T12:29:49.883Z,44.60
2023-04-27T12:30:26.451Z,44.60
2023-04-27T12:31:03.249Z,44.70
2023-04-27T12:31:37.473Z,44.70
2023-04-27T12:32:11.697Z,44.60
2023-04-27T12:32:47.508Z,44.60
2023-04-27T12:33:22.227Z,44.70
2023-04-27T12:33:59.654Z,44.70
2023-04-27T12:34:33.854Z,44.60
2023-04-27T12:35:12.507Z,44.20
2023-04-27T12:35:46.885Z,44.00
2023-04-27T12:36:22.691Z,43.60
2023-04-27T12:36:56.069Z,43.70
2023-04-27T12:37:31.669Z,43.40
2023-04-27T12:38:04.952Z,43.10
2023-04-27T12:38:40.974Z,43.20
2023-04-27T12:39:16.716Z,43.30
2023-04-27T12:39:52.666Z,44.80
2023-04-27T12:40:27.233Z,47.30
2023-04-27T12:41:04.304Z,44.10
2023-04-27T12:41:38.288Z,44.90
2023-04-27T12:42:13.509Z,45.30
2023-04-27T12:42:48.115Z,46.10
2023-04-27T12:43:21.996Z,44.30
2023-04-27T12:43:59.716Z,44.30
2023-04-27T12:44:34.551Z,44.70
2023-04-27T12:45:11.837Z,46.10
2023-04-27T12:45:47.423Z,49.70
2023-04-27T12:46:22.339Z,47.60
2023-04-27T12:46:56.814Z,47.90
2023-04-27T12:47:50.360Z,45.90
2023-04-27T12:48:27.078Z,45.90
2023-04-27T12:49:03.215Z,45.40
2023-04-27T12:49:38.597Z,45.00
2023-04-27T12:50:16.427Z,45.10
2023-04-27T12:50:50.209Z,45.20
2023-04-27T12:51:25.671Z,45.00
2023-04-27T12:51:59.241Z,44.90
2023-04-27T12:52:35.237Z,44.60
2023-04-27T12:53:08.953Z,43.80
2023-04-27T12:53:44.353Z,43.70
2023-04-27T12:54:18.639Z,43.70
2023-04-27T12:54:58.498Z,43.80
2023-04-27T12:55:34.481Z,43.70
2023-04-27T12:56:11.748Z,43.70
2023-04-27T12:56:46.291Z,43.80
2023-04-27T12:57:21.869Z,43.70
2023-04-27T12:57:58.206Z,43.90
2023-04-27T12:58:34.520Z,44.70
2023-04-27T12:59:08.502Z,44.30
2023-04-27T12:59:42.881Z,44.30
2023-04-27T13:00:19.116Z,44.30
2023-04-27T13:00:54.066Z,44.50
2023-04-27T13:01:28.468Z,44.80
2023-04-27T13:02:04.383Z,45.20
2023-04-27T13:02:38.867Z,45.50
2023-04-27T13:03:14.676Z,45.70
2023-04-27T13:03:48.991Z,46.00
2023-04-27T13:04:23.818Z,45.90
2023-04-27T13:04:58.224Z,45.90
2023-04-27T13:05:35.404Z,45.00
2023-04-27T13:06:09.548Z,45.00
2023-04-27T13:06:45.261Z,43.90
2023-04-27T13:07:18.742Z,43.90
2023-04-27T13:07:52.262Z,43.80
2023-04-27T13:08:27.907Z,43.80
2023-04-27T13:09:03.290Z,43.80
2023-04-27T13:09:39.425Z,43.80
2023-04-27T13:10:12.785Z,43.70
2023-04-27T13:10:50.799Z,43.60
2023-04-27T13:11:24.923Z,43.60
2023-04-27T13:12:01.804Z,43.60
2023-04-27T13:12:36.513Z,43.60
2023-04-27T13:13:10.393Z,43.50
2023-04-27T13:13:45.592Z,43.50
2023-04-27T13:14:20.131Z,43.50
2023-04-27T13:14:53.971Z,43.50
2023-04-27T13:15:29.920Z,43.50
2023-04-27T13:16:04.526Z,43.60
2023-04-27T13:16:40.525Z,43.60
2023-04-27T13:17:14.646Z,43.70
2023-04-27T13:17:49.822Z,43.80
2023-04-27T13:18:26.334Z,43.90
2023-04-27T13:19:01.778Z,44.00
2023-04-27T13:19:36.472Z,44.10
2023-04-27T13:20:12.031Z,44.00
2023-04-27T13:20:50.586Z,44.00
2023-04-27T13:21:25.180Z,44.00
2023-04-27T13:21:59.852Z,44.00
2023-04-27T13:22:34.112Z,44.10
2023-04-27T13:23:12.355Z,44.10
2023-04-27T13:23:48.590Z,44.10
2023-04-27T13:24:22.255Z,44.10
2023-04-27T13:24:57.272Z,43.90
2023-04-27T13:25:33.165Z,43.80
2023-04-27T13:26:07.763Z,43.80
2023-04-27T13:26:43.546Z,43.80
2023-04-27T13:27:17.818Z,43.80
2023-04-27T13:27:52.716Z,43.70
2023-04-27T13:28:28.252Z,43.60
2023-04-27T13:29:04.229Z,43.50
2023-04-27T13:29:39.817Z,43.50
2023-04-27T13:30:14.517Z,43.50
2023-04-27T13:30:49.867Z,43.50
2023-04-27T13:31:23.411Z,43.50
2023-04-27T13:31:58.209Z,43.50
2023-04-27T13:32:33.844Z,43.60
2023-04-27T13:33:21.963Z,43.70
2023-04-27T13:33:59.459Z,43.70
2023-04-27T13:34:32.399Z,43.70
2023-04-27T13:35:06.202Z,43.70
2023-04-27T13:35:40.969Z,43.70
2023-04-27T13:36:16.693Z,43.80
2023-04-27T13:36:50.726Z,43.80
2023-04-27T13:37:26.295Z,43.80
2023-04-27T13:38:02.824Z,43.80
2023-04-27T13:38:36.268Z,44.00
2023-04-27T13:39:12.417Z,44.10
2023-04-27T13:46:14.597Z,46.10
2023-04-27T13:46:50.397Z,44.30
2023-04-27T13:47:25.086Z,44.10
2023-04-27T13:47:59.215Z,44.10
2023-04-27T13:48:33.874Z,44.10
2023-04-27T13:49:06.812Z,44.10
2023-04-27T13:49:41.411Z,44.10
2023-04-27T13:50:16.370Z,44.10
2023-04-27T13:50:51.170Z,44.10
2023-04-27T13:51:30.330Z,44.20
2023-04-27T13:52:05.385Z,44.20
2023-04-27T13:52:39.788Z,44.20
2023-04-27T13:53:13.556Z,44.20
2023-04-27T13:53:48.001Z,44.20
2023-04-27T13:54:23.583Z,44.10
2023-04-27T13:54:58.280Z,44.10
2023-04-27T13:55:38.112Z,44.20
2023-04-27T13:56:11.983Z,44.20
2023-04-27T13:56:48.632Z,44.20
2023-04-27T13:57:21.947Z,44.30
2023-04-27T13:57:57.904Z,44.20
2023-04-27T13:58:32.251Z,44.30
2023-04-27T13:59:07.329Z,44.30
2023-04-27T13:59:43.640Z,44.30
2023-04-27T14:00:20.001Z,44.30
2023-04-27T14:00:54.110Z,44.50
2023-04-27T14:01:31.453Z,44.30
2023-04-27T14:02:05.646Z,44.40
2023-04-27T14:02:43.133Z,44.40
2023-04-27T14:03:16.988Z,44.40
2023-04-27T14:03:52.367Z,44.50
2023-04-27T14:04:27.701Z,44.40
2023-04-27T14:05:03.669Z,44.40
2023-04-27T14:05:37.528Z,44.40
2023-04-27T14:06:14.215Z,44.50
2023-04-27T14:06:51.129Z,44.60
2023-04-27T14:07:26.270Z,44.60
2023-04-27T14:08:00.444Z,44.50
2023-04-27T14:08:35.856Z,44.60
2023-04-27T14:09:10.189Z,44.50
2023-04-27T14:09:44.657Z,44.60
2023-04-27T14:10:20.140Z,44.50
2023-04-27T14:10:54.607Z,44.50
2023-04-27T14:11:29.755Z,44.50
2023-04-27T14:12:05.431Z,44.50
2023-04-27T14:12:41.327Z,44.50
2023-04-27T14:13:16.091Z,44.50
2023-04-27T14:13:50.956Z,44.40
2023-04-27T14:14:25.607Z,44.40
2023-04-27T14:14:59.592Z,44.50
2023-04-27T14:15:37.661Z,44.50
2023-04-27T14:16:11.257Z,44.50
2023-04-27T14:16:47.163Z,44.50
2023-04-27T14:17:23.357Z,44.30
2023-04-27T14:18:17.045Z,44.30
2023-04-27T14:18:53.019Z,44.30
2023-04-27T14:19:28.044Z,44.30
2023-04-27T14:20:02.338Z,44.30
2023-04-27T14:20:38.500Z,44.30
2023-04-27T14:21:13.519Z,44.50
2023-04-27T14:21:50.748Z,44.50
2023-04-27T14:22:26.935Z,44.70
2023-04-27T14:23:01.114Z,44.70
2023-04-27T14:23:35.972Z,44.80
2023-04-27T14:24:09.853Z,44.80
2023-04-27T14:24:44.970Z,44.70
2023-04-27T14:25:19.780Z,44.90
2023-04-27T14:25:55.321Z,44.70
2023-04-27T14:26:30.750Z,44.60
2023-04-27T14:27:05.938Z,44.60
2023-04-27T14:27:40.102Z,44.50
2023-04-27T14:28:15.380Z,44.60
2023-04-27T14:28:49.083Z,44.60
2023-04-27T14:29:26.253Z,44.60
2023-04-27T14:30:00.599Z,44.60
2023-04-27T14:30:38.411Z,44.70
2023-04-27T14:31:13.483Z,44.60
2023-04-27T14:31:48.562Z,44.70
2023-04-27T14:32:23.714Z,44.70
2023-04-27T14:32:59.572Z,44.60
2023-04-27T14:33:34.013Z,44.60
2023-04-27T14:34:08.376Z,44.60
2023-04-27T14:34:43.303Z,44.60
2023-04-27T14:35:17.385Z,44.60
2023-04-27T14:35:53.638Z,44.60
2023-04-27T14:36:28.016Z,44.60
2023-04-27T14:37:03.015Z,44.70
2023-04-27T14:37:38.778Z,44.80
2023-04-27T14:38:13.417Z,44.90
2023-04-27T14:38:50.408Z,44.80
2023-04-27T14:39:25.166Z,44.60
2023-04-27T14:39:59.727Z,44.60
2023-04-27T14:40:34.973Z,44.60
2023-04-27T14:41:09.693Z,44.70
2023-04-27T14:41:44.277Z,44.60
2023-04-27T14:42:19.558Z,44.60
2023-04-27T14:42:54.213Z,44.60
2023-04-27T14:43:29.886Z,44.50
2023-04-27T14:44:04.025Z,44.30
2023-04-27T14:44:37.877Z,44.30
2023-04-27T14:45:16.042Z,44.30
2023-04-27T14:45:52.596Z,44.20
2023-04-27T14:46:31.342Z,44.20
2023-04-27T14:47:07.643Z,44.20
2023-04-27T14:47:43.694Z,44.20
2023-04-27T14:48:18.294Z,44.30
2023-04-27T14:48:51.550Z,44.40
2023-04-27T14:49:27.630Z,44.90
2023-04-27T14:50:01.531Z,44.40
2023-04-27T14:50:36.631Z,44.40
2023-04-27T14:51:12.278Z,44.40
2023-04-27T14:51:46.724Z,44.40
2023-04-27T14:52:23.374Z,44.40
2023-04-27T14:52:58.935Z,44.40
2023-04-27T14:53:34.097Z,44.40
2023-04-27T14:54:09.858Z,44.40
2023-04-27T14:54:43.832Z,44.30
2023-04-27T14:55:18.877Z,44.30
2023-04-27T14:55:54.076Z,44.30
2023-04-27T14:56:29.247Z,44.30
2023-04-27T14:57:03.786Z,44.90
2023-04-27T14:57:38.130Z,44.20
2023-04-27T14:58:13.166Z,44.20
2023-04-27T14:58:47.193Z,44.20
2023-04-27T14:59:24.026Z,44.20
2023-04-27T14:59:58.508Z,44.30
2023-04-27T15:00:33.279Z,44.30
2023-04-27T15:01:08.801Z,44.30
2023-04-27T15:01:44.570Z,44.30
2023-04-27T15:02:20.436Z,44.30
2023-04-27T15:02:55.067Z,44.40
2023-04-27T15:03:31.319Z,44.60
2023-04-27T15:04:07.045Z,44.60
2023-04-27T15:04:43.419Z,44.50
2023-04-27T15:05:17.262Z,44.40
2023-04-27T15:05:51.587Z,44.40